Carlsbad Caverns National Park, NM

10:30 AM MDT on July 28, 2014 (GMT -0600)
KNMCARLS3 Elev 3158 ft | 32.43 °N, 104.25 °W | Change Station

Current weather conditions updated 2 minutes ago

Clear
Clear
84.6 °F
Feels Like 84 °F
N
9.0
Wind Variable Wind from NNW
Gusts 12.0 mph

Today is forecast to be Cooler than yesterday.

Today
High -- | Low -- °F
--% Chance of Precip.
Yesterday
High -- | Low -- °F
Precip. -- in
6:08 AM 7:57 PM
Waxing Crescent, 3% visible
Pressure 30.06 in
Visibility 10.0 miles
Clouds Clear
Heat Index 84 °F
Dew Point 59 °F
Humidity 42%
Rainfall 0.00 in
Snow Depth Not available.
UV 7 out of 12
Pollen 5.00 out of 12
Air Quality Not available.
Flu Activity Not available.
METAR KCNM 281553Z AUTO 34017KT 10SM CLR 29/13 A3026 RMK AO2 SLP180 T02890128

More Conditions Fewer Conditions

Pressure 30.06 in
Visibility 10.0 miles
Clouds Clear
Heat Index 84 °F
Dew Point 59 °F
Humidity 42%
Rainfall 0.00 in
Snow Depth Not available.
UV 7 out of 12
Pollen 5.00 out of 12
Air Quality Not available.
Flu Activity Not available.
METAR KCNM 281553Z AUTO 34017KT 10SM CLR 29/13 A3026 RMK AO2 SLP180 T02890128

More Conditions Fewer Conditions

10-Day Weather Forecast

Almanac

Astronomy

Jul. 28, 2014 Rise Set
Actual Time 6:08 AM MDT 7:57 PM MDT
Civil Twilight 5:41 AM MDT 8:24 PM MDT
Nautical Twilight 5:09 AM MDT 8:57 PM MDT
Astronomical Twilight 4:34 AM MDT 9:31 PM MDT
Moon 7:43 AM MDT 8:51 PM MDT
Length of Visible Light 14h 42m
Length of Day
13h 48m
Tomorrow will be 1m 24s shorter.
Waxing Crescent, 3% of the Moon is Illuminated
Today
Waxing Crescent
Aug 3
First Quarter
Aug 10
Full
Aug 17
Last Quarter
Aug 25
New

Today's Extremes

State Highs State Lows

Community

WunderPhotos

Upload Photos

1,738,407 photos uploaded!

Nearby

Snow Depth

Station Depth Elevation
Sierra Blanca 2 in 10280 ft
McKnight Cabin 0 in 9240 ft
Wesner Springs 2 in 11120 ft
Santa Fe 1 in 11445 ft
Silver Creek Divide 1 in 9000 ft

Earthquake Activity

City Distance Mag. Time & Date
No recent earthquake activity has been reported nearby.
Minimum magnitude displayed is 2.5.

Coastal Water Temperatures

Place Temperature
No Stations Reporting

Nearby Weather Stations

Station Location Temp. Heat Index Dew Point Humidity Wind Precip. Elev Updated Type
Carlsbad, NM 84.6 °F 84 °F 59 °F 42% NNW  at  9.0 mph 0.00 in / hr 3158 ft 10:27 AM MDT Normal
Ridgecrest Subdivision, Carlsbad, NM 83.0 °F 83 °F 58 °F 42% North  at  12.0 mph 0.00 in / hr 3200 ft 10:30 AM MDT Rapid Fire
RAWS BATDRAW NM, Whites City, NM 74 °F 77 °F 58 °F 58% NW  at  22 mph 0.00 in / hr 4424 ft 8:52 AM MDT MADIS

Show More Stations Show Fewer Stations